sensor_id;sensor_type;location;lat;lon;timestamp;P1;durP1;ratioP1;P2;durP2;ratioP2
44706;SDS011;30433;45.596;8.408;2022-07-22T00:03:17;7.03;;;6.07;;
44706;SDS011;30433;45.596;8.408;2022-07-22T00:09:20;7.28;;;6.57;;
44706;SDS011;30433;45.596;8.408;2022-07-22T00:15:22;8.23;;;6.45;;
44706;SDS011;30433;45.596;8.408;2022-07-22T00:21:24;10.30;;;7.13;;
44706;SDS011;30433;45.596;8.408;2022-07-22T00:27:28;10.02;;;7.40;;
44706;SDS011;30433;45.596;8.408;2022-07-22T00:33:30;9.98;;;6.68;;
44706;SDS011;30433;45.596;8.408;2022-07-22T00:39:32;11.43;;;7.30;;
44706;SDS011;30433;45.596;8.408;2022-07-22T00:45:36;7.53;;;6.40;;
44706;SDS011;30433;45.596;8.408;2022-07-22T00:51:38;7.97;;;6.53;;
44706;SDS011;30433;45.596;8.408;2022-07-22T00:57:40;10.15;;;6.45;;
44706;SDS011;30433;45.596;8.408;2022-07-22T01:03:44;8.50;;;6.30;;
44706;SDS011;30433;45.596;8.408;2022-07-22T01:09:47;7.72;;;6.35;;
44706;SDS011;30433;45.596;8.408;2022-07-22T01:15:49;9.43;;;7.40;;
44706;SDS011;30433;45.596;8.408;2022-07-22T01:21:52;8.15;;;6.70;;
44706;SDS011;30433;45.596;8.408;2022-07-22T01:27:54;8.57;;;6.88;;
44706;SDS011;30433;45.596;8.408;2022-07-22T01:33:56;7.20;;;6.28;;
44706;SDS011;30433;45.596;8.408;2022-07-22T01:40:00;7.35;;;6.50;;
44706;SDS011;30433;45.596;8.408;2022-07-22T01:46:03;7.40;;;6.70;;
44706;SDS011;30433;45.596;8.408;2022-07-22T01:52:06;15.43;;;6.53;;
44706;SDS011;30433;45.596;8.408;2022-07-22T01:58:10;7.20;;;6.43;;
44706;SDS011;30433;45.596;8.408;2022-07-22T02:04:12;7.45;;;6.75;;
44706;SDS011;30433;45.596;8.408;2022-07-22T02:10:14;8.27;;;6.82;;
44706;SDS011;30433;45.596;8.408;2022-07-22T02:16:17;7.93;;;7.07;;
44706;SDS011;30433;45.596;8.408;2022-07-22T02:22:19;7.50;;;6.80;;
44706;SDS011;30433;45.596;8.408;2022-07-22T02:28:22;7.28;;;6.40;;
44706;SDS011;30433;45.596;8.408;2022-07-22T02:40:27;7.68;;;6.80;;
44706;SDS011;30433;45.596;8.408;2022-07-22T02:46:29;8.98;;;6.53;;
44706;SDS011;30433;45.596;8.408;2022-07-22T02:52:33;8.80;;;7.15;;
44706;SDS011;30433;45.596;8.408;2022-07-22T02:58:35;10.93;;;6.97;;
44706;SDS011;30433;45.596;8.408;2022-07-22T03:10:40;8.60;;;6.78;;
44706;SDS011;30433;45.596;8.408;2022-07-22T03:16:42;8.32;;;7.07;;
44706;SDS011;30433;45.596;8.408;2022-07-22T03:28:47;9.13;;;6.78;;
44706;SDS011;30433;45.596;8.408;2022-07-22T03:34:49;7.18;;;6.50;;
44706;SDS011;30433;45.596;8.408;2022-07-22T03:40:52;8.50;;;7.05;;
44706;SDS011;30433;45.596;8.408;2022-07-22T03:46:57;7.95;;;6.55;;
44706;SDS011;30433;45.596;8.408;2022-07-22T03:52:59;7.70;;;6.90;;
44706;SDS011;30433;45.596;8.408;2022-07-22T03:59:01;7.13;;;6.20;;
44706;SDS011;30433;45.596;8.408;2022-07-22T04:05:05;8.20;;;6.57;;
44706;SDS011;30433;45.596;8.408;2022-07-22T04:11:08;9.77;;;7.07;;
44706;SDS011;30433;45.596;8.408;2022-07-22T04:17:10;7.18;;;6.47;;
44706;SDS011;30433;45.596;8.408;2022-07-22T04:23:13;8.98;;;6.32;;
44706;SDS011;30433;45.596;8.408;2022-07-22T04:29:15;10.00;;;6.88;;
44706;SDS011;30433;45.596;8.408;2022-07-22T04:41:21;7.82;;;7.03;;
44706;SDS011;30433;45.596;8.408;2022-07-22T04:47:23;13.52;;;6.97;;
44706;SDS011;30433;45.596;8.408;2022-07-22T04:59:28;8.13;;;7.25;;
44706;SDS011;30433;45.596;8.408;2022-07-22T05:05:30;8.77;;;6.72;;
44706;SDS011;30433;45.596;8.408;2022-07-22T05:17:35;8.07;;;6.78;;
44706;SDS011;30433;45.596;8.408;2022-07-22T05:23:38;7.40;;;6.30;;
44706;SDS011;30433;45.596;8.408;2022-07-22T05:29:40;8.73;;;6.38;;
44706;SDS011;30433;45.596;8.408;2022-07-22T05:41:45;10.43;;;7.13;;
44706;SDS011;30433;45.596;8.408;2022-07-22T05:53:50;9.77;;;6.80;;
44706;SDS011;30433;45.596;8.408;2022-07-22T05:59:52;12.07;;;6.57;;
44706;SDS011;30433;45.596;8.408;2022-07-22T06:05:54;8.90;;;6.65;;
44706;SDS011;30433;45.596;8.408;2022-07-22T06:11:58;10.30;;;6.70;;
44706;SDS011;30433;45.596;8.408;2022-07-22T06:18:00;8.85;;;6.72;;
44706;SDS011;30433;45.596;8.408;2022-07-22T06:24:02;10.50;;;6.63;;
44706;SDS011;30433;45.596;8.408;2022-07-22T06:30:06;8.90;;;6.40;;
44706;SDS011;30433;45.596;8.408;2022-07-22T06:36:09;8.05;;;6.20;;
44706;SDS011;30433;45.596;8.408;2022-07-22T06:42:11;8.45;;;5.90;;
44706;SDS011;30433;45.596;8.408;2022-07-22T06:48:15;8.13;;;6.25;;
44706;SDS011;30433;45.596;8.408;2022-07-22T06:54:17;7.80;;;6.35;;
44706;SDS011;30433;45.596;8.408;2022-07-22T07:00:19;7.82;;;6.45;;
44706;SDS011;30433;45.596;8.408;2022-07-22T07:06:22;6.18;;;5.53;;
44706;SDS011;30433;45.596;8.408;2022-07-22T07:12:26;10.68;;;6.47;;
44706;SDS011;30433;45.596;8.408;2022-07-22T07:18:28;11.65;;;6.35;;
44706;SDS011;30433;45.596;8.408;2022-07-22T07:24:31;6.63;;;5.57;;
44706;SDS011;30433;45.596;8.408;2022-07-22T07:30:34;8.77;;;5.63;;
44706;SDS011;30433;45.596;8.408;2022-07-22T07:36:36;8.27;;;4.93;;
44706;SDS011;30433;45.596;8.408;2022-07-22T07:42:39;14.75;;;4.82;;
44706;SDS011;30433;45.596;8.408;2022-07-22T07:48:41;6.05;;;3.80;;
44706;SDS011;30433;45.596;8.408;2022-07-22T07:54:44;6.05;;;3.72;;
44706;SDS011;30433;45.596;8.408;2022-07-22T08:00:49;6.78;;;3.90;;
44706;SDS011;30433;45.596;8.408;2022-07-22T08:06:51;7.15;;;3.90;;
44706;SDS011;30433;45.596;8.408;2022-07-22T08:12:53;6.70;;;3.53;;
44706;SDS011;30433;45.596;8.408;2022-07-22T08:18:59;7.00;;;3.42;;
44706;SDS011;30433;45.596;8.408;2022-07-22T08:25:01;8.77;;;3.20;;
44706;SDS011;30433;45.596;8.408;2022-07-22T08:31:04;6.32;;;3.40;;
44706;SDS011;30433;45.596;8.408;2022-07-22T08:37:07;11.05;;;3.50;;
44706;SDS011;30433;45.596;8.408;2022-07-22T08:43:10;9.90;;;6.30;;
44706;SDS011;30433;45.596;8.408;2022-07-22T08:49:13;5.18;;;3.35;;
44706;SDS011;30433;45.596;8.408;2022-07-22T08:55:17;9.52;;;3.15;;
44706;SDS011;30433;45.596;8.408;2022-07-22T09:01:19;5.25;;;3.17;;
44706;SDS011;30433;45.596;8.408;2022-07-22T09:07:27;6.13;;;2.80;;
44706;SDS011;30433;45.596;8.408;2022-07-22T09:13:32;5.35;;;3.03;;
44706;SDS011;30433;45.596;8.408;2022-07-22T09:19:34;5.63;;;2.80;;
44706;SDS011;30433;45.596;8.408;2022-07-22T09:25:37;10.10;;;3.25;;
44706;SDS011;30433;45.596;8.408;2022-07-22T09:31:41;7.80;;;2.95;;
44706;SDS011;30433;45.596;8.408;2022-07-22T09:37:51;7.20;;;3.10;;
44706;SDS011;30433;45.596;8.408;2022-07-22T09:43:54;5.45;;;3.10;;
44706;SDS011;30433;45.596;8.408;2022-07-22T09:49:58;5.93;;;3.33;;
44706;SDS011;30433;45.596;8.408;2022-07-22T09:56:00;6.90;;;3.40;;
44706;SDS011;30433;45.596;8.408;2022-07-22T10:02:04;10.32;;;3.90;;
44706;SDS011;30433;45.596;8.408;2022-07-22T10:08:09;7.13;;;3.40;;
44706;SDS011;30433;45.596;8.408;2022-07-22T10:14:12;7.88;;;3.40;;
44706;SDS011;30433;45.596;8.408;2022-07-22T10:20:16;6.88;;;3.63;;
44706;SDS011;30433;45.596;8.408;2022-07-22T10:26:21;9.30;;;3.40;;
44706;SDS011;30433;45.596;8.408;2022-07-22T10:33:03;8.25;;;4.22;;
44706;SDS011;30433;45.596;8.408;2022-07-22T10:39:09;8.90;;;3.75;;
44706;SDS011;30433;45.596;8.408;2022-07-22T10:45:13;9.43;;;4.07;;
44706;SDS011;30433;45.596;8.408;2022-07-22T10:51:16;6.93;;;4.28;;
44706;SDS011;30433;45.596;8.408;2022-07-22T10:57:28;6.65;;;4.07;;
44706;SDS011;30433;45.596;8.408;2022-07-22T11:03:33;5.43;;;3.90;;
44706;SDS011;30433;45.596;8.408;2022-07-22T11:09:36;7.07;;;3.85;;
44706;SDS011;30433;45.596;8.408;2022-07-22T11:15:39;9.77;;;4.13;;
44706;SDS011;30433;45.596;8.408;2022-07-22T11:21:48;10.90;;;4.63;;
44706;SDS011;30433;45.596;8.408;2022-07-22T11:27:51;8.63;;;3.85;;
44706;SDS011;30433;45.596;8.408;2022-07-22T11:34:03;7.00;;;4.60;;
44706;SDS011;30433;45.596;8.408;2022-07-22T11:40:08;7.47;;;3.65;;
44706;SDS011;30433;45.596;8.408;2022-07-22T11:46:12;9.45;;;3.60;;
44706;SDS011;30433;45.596;8.408;2022-07-22T11:52:15;5.30;;;3.90;;
44706;SDS011;30433;45.596;8.408;2022-07-22T11:58:19;7.63;;;3.90;;
44706;SDS011;30433;45.596;8.408;2022-07-22T12:04:35;6.78;;;3.67;;
44706;SDS011;30433;45.596;8.408;2022-07-22T12:10:38;8.32;;;4.00;;
44706;SDS011;30433;45.596;8.408;2022-07-22T12:16:41;6.63;;;3.55;;
44706;SDS011;30433;45.596;8.408;2022-07-22T12:22:47;36.97;;;4.72;;
44706;SDS011;30433;45.596;8.408;2022-07-22T12:35:23;6.07;;;3.80;;
44706;SDS011;30433;45.596;8.408;2022-07-22T12:41:27;7.53;;;3.58;;
44706;SDS011;30433;45.596;8.408;2022-07-22T12:47:40;8.10;;;3.67;;
44706;SDS011;30433;45.596;8.408;2022-07-22T12:53:46;4.65;;;3.45;;
44706;SDS011;30433;45.596;8.408;2022-07-22T12:59:50;5.78;;;3.50;;
44706;SDS011;30433;45.596;8.408;2022-07-22T13:05:53;5.85;;;3.17;;
44706;SDS011;30433;45.596;8.408;2022-07-22T13:11:58;10.63;;;3.70;;
44706;SDS011;30433;45.596;8.408;2022-07-22T13:18:00;8.70;;;3.50;;
44706;SDS011;30433;45.596;8.408;2022-07-22T13:24:03;3.63;;;2.95;;
44706;SDS011;30433;45.596;8.408;2022-07-22T13:30:07;7.35;;;3.10;;
44706;SDS011;30433;45.596;8.408;2022-07-22T13:36:10;6.30;;;3.80;;
44706;SDS011;30433;45.596;8.408;2022-07-22T13:42:12;6.85;;;3.83;;
44706;SDS011;30433;45.596;8.408;2022-07-22T13:48:18;7.82;;;3.40;;
44706;SDS011;30433;45.596;8.408;2022-07-22T13:54:22;5.88;;;3.50;;
44706;SDS011;30433;45.596;8.408;2022-07-22T14:00:24;8.27;;;3.83;;
44706;SDS011;30433;45.596;8.408;2022-07-22T14:06:27;4.55;;;3.67;;
44706;SDS011;30433;45.596;8.408;2022-07-22T14:12:29;6.15;;;3.50;;
44706;SDS011;30433;45.596;8.408;2022-07-22T14:18:31;6.82;;;3.20;;
44706;SDS011;30433;45.596;8.408;2022-07-22T14:24:35;5.60;;;3.30;;
44706;SDS011;30433;45.596;8.408;2022-07-22T14:30:37;7.53;;;3.47;;
44706;SDS011;30433;45.596;8.408;2022-07-22T14:36:39;4.85;;;3.10;;
44706;SDS011;30433;45.596;8.408;2022-07-22T14:42:43;4.82;;;3.13;;
44706;SDS011;30433;45.596;8.408;2022-07-22T14:48:46;4.43;;;3.72;;
44706;SDS011;30433;45.596;8.408;2022-07-22T14:54:52;5.75;;;3.70;;
44706;SDS011;30433;45.596;8.408;2022-07-22T15:00:56;6.07;;;3.60;;
44706;SDS011;30433;45.596;8.408;2022-07-22T15:06:58;4.25;;;3.20;;
44706;SDS011;30433;45.596;8.408;2022-07-22T15:13:02;7.55;;;4.32;;
44706;SDS011;30433;45.596;8.408;2022-07-22T15:19:06;6.75;;;3.58;;
44706;SDS011;30433;45.596;8.408;2022-07-22T15:25:08;5.95;;;3.60;;
44706;SDS011;30433;45.596;8.408;2022-07-22T15:31:11;7.45;;;3.67;;
44706;SDS011;30433;45.596;8.408;2022-07-22T15:37:14;9.25;;;3.78;;
44706;SDS011;30433;45.596;8.408;2022-07-22T15:43:17;8.20;;;4.18;;
44706;SDS011;30433;45.596;8.408;2022-07-22T15:49:20;8.23;;;3.65;;
44706;SDS011;30433;45.596;8.408;2022-07-22T15:55:24;5.90;;;4.07;;
44706;SDS011;30433;45.596;8.408;2022-07-22T16:01:26;11.80;;;3.67;;
44706;SDS011;30433;45.596;8.408;2022-07-22T16:07:28;6.80;;;3.97;;
44706;SDS011;30433;45.596;8.408;2022-07-22T16:13:31;7.82;;;4.13;;
44706;SDS011;30433;45.596;8.408;2022-07-22T16:19:33;6.25;;;3.47;;
44706;SDS011;30433;45.596;8.408;2022-07-22T16:25:35;7.50;;;4.13;;
44706;SDS011;30433;45.596;8.408;2022-07-22T16:31:40;12.07;;;4.30;;
44706;SDS011;30433;45.596;8.408;2022-07-22T16:37:42;5.25;;;3.58;;
44706;SDS011;30433;45.596;8.408;2022-07-22T16:43:44;4.68;;;3.35;;
44706;SDS011;30433;45.596;8.408;2022-07-22T16:49:47;5.97;;;3.55;;
44706;SDS011;30433;45.596;8.408;2022-07-22T16:55:49;4.40;;;3.35;;
44706;SDS011;30433;45.596;8.408;2022-07-22T17:01:51;5.72;;;3.40;;
44706;SDS011;30433;45.596;8.408;2022-07-22T17:07:55;6.45;;;3.70;;
44706;SDS011;30433;45.596;8.408;2022-07-22T17:13:57;15.60;;;3.97;;
44706;SDS011;30433;45.596;8.408;2022-07-22T17:19:59;14.05;;;3.97;;
44706;SDS011;30433;45.596;8.408;2022-07-22T17:26:02;6.25;;;3.63;;
44706;SDS011;30433;45.596;8.408;2022-07-22T17:32:05;9.23;;;3.63;;
44706;SDS011;30433;45.596;8.408;2022-07-22T17:38:07;9.43;;;3.72;;
44706;SDS011;30433;45.596;8.408;2022-07-22T17:44:11;9.18;;;4.13;;
44706;SDS011;30433;45.596;8.408;2022-07-22T17:50:14;9.73;;;4.40;;
44706;SDS011;30433;45.596;8.408;2022-07-22T17:56:16;7.65;;;4.00;;
44706;SDS011;30433;45.596;8.408;2022-07-22T18:02:20;7.25;;;3.65;;
44706;SDS011;30433;45.596;8.408;2022-07-22T18:08:22;5.95;;;3.65;;
44706;SDS011;30433;45.596;8.408;2022-07-22T18:14:24;18.90;;;4.10;;
44706;SDS011;30433;45.596;8.408;2022-07-22T18:20:27;12.73;;;4.30;;
44706;SDS011;30433;45.596;8.408;2022-07-22T18:26:29;8.65;;;4.15;;
44706;SDS011;30433;45.596;8.408;2022-07-22T18:32:31;9.93;;;3.97;;
44706;SDS011;30433;45.596;8.408;2022-07-22T18:38:35;10.65;;;4.07;;
44706;SDS011;30433;45.596;8.408;2022-07-22T18:44:37;6.88;;;3.65;;
44706;SDS011;30433;45.596;8.408;2022-07-22T18:50:39;3.83;;;3.42;;
44706;SDS011;30433;45.596;8.408;2022-07-22T18:56:43;8.95;;;4.03;;
44706;SDS011;30433;45.596;8.408;2022-07-22T19:02:45;6.38;;;3.60;;
44706;SDS011;30433;45.596;8.408;2022-07-22T19:08:48;20.15;;;4.85;;
44706;SDS011;30433;45.596;8.408;2022-07-22T19:14:51;6.38;;;4.07;;
44706;SDS011;30433;45.596;8.408;2022-07-22T19:20:53;11.48;;;4.25;;
44706;SDS011;30433;45.596;8.408;2022-07-22T19:26:55;16.65;;;4.90;;
44706;SDS011;30433;45.596;8.408;2022-07-22T19:32:59;6.57;;;4.25;;
44706;SDS011;30433;45.596;8.408;2022-07-22T19:39:01;7.78;;;4.65;;
44706;SDS011;30433;45.596;8.408;2022-07-22T19:45:04;5.28;;;4.20;;
44706;SDS011;30433;45.596;8.408;2022-07-22T19:51:08;7.25;;;4.80;;
44706;SDS011;30433;45.596;8.408;2022-07-22T19:57:10;7.03;;;5.63;;
44706;SDS011;30433;45.596;8.408;2022-07-22T20:03:12;7.45;;;4.93;;
44706;SDS011;30433;45.596;8.408;2022-07-22T20:09:16;7.75;;;4.85;;
44706;SDS011;30433;45.596;8.408;2022-07-22T20:15:18;8.07;;;4.90;;
44706;SDS011;30433;45.596;8.408;2022-07-22T20:21:20;8.88;;;4.90;;
44706;SDS011;30433;45.596;8.408;2022-07-22T20:27:25;11.38;;;5.05;;
44706;SDS011;30433;45.596;8.408;2022-07-22T20:33:27;10.32;;;5.80;;
44706;SDS011;30433;45.596;8.408;2022-07-22T20:39:29;7.75;;;5.00;;
44706;SDS011;30433;45.596;8.408;2022-07-22T20:45:33;6.78;;;4.95;;
44706;SDS011;30433;45.596;8.408;2022-07-22T20:51:36;6.63;;;4.93;;
44706;SDS011;30433;45.596;8.408;2022-07-22T20:57:38;6.75;;;5.03;;
44706;SDS011;30433;45.596;8.408;2022-07-22T21:03:42;6.63;;;4.90;;
44706;SDS011;30433;45.596;8.408;2022-07-22T21:09:44;9.10;;;5.38;;
44706;SDS011;30433;45.596;8.408;2022-07-22T21:15:46;11.75;;;5.90;;
44706;SDS011;30433;45.596;8.408;2022-07-22T21:21:49;5.90;;;5.05;;
44706;SDS011;30433;45.596;8.408;2022-07-22T21:27:51;6.43;;;5.32;;
44706;SDS011;30433;45.596;8.408;2022-07-22T21:33:53;7.03;;;5.75;;
44706;SDS011;30433;45.596;8.408;2022-07-22T21:39:57;7.65;;;5.95;;
44706;SDS011;30433;45.596;8.408;2022-07-22T21:45:59;14.05;;;6.30;;
44706;SDS011;30433;45.596;8.408;2022-07-22T21:52:01;7.43;;;5.80;;
44706;SDS011;30433;45.596;8.408;2022-07-22T21:58:05;6.68;;;5.78;;
44706;SDS011;30433;45.596;8.408;2022-07-22T22:04:07;8.35;;;5.38;;
44706;SDS011;30433;45.596;8.408;2022-07-22T22:10:09;5.57;;;5.03;;
44706;SDS011;30433;45.596;8.408;2022-07-22T22:16:13;6.93;;;5.43;;
44706;SDS011;30433;45.596;8.408;2022-07-22T22:22:15;16.85;;;6.50;;
44706;SDS011;30433;45.596;8.408;2022-07-22T22:28:17;9.95;;;6.10;;
44706;SDS011;30433;45.596;8.408;2022-07-22T22:34:20;9.18;;;5.97;;
44706;SDS011;30433;45.596;8.408;2022-07-22T22:40:22;8.07;;;5.43;;
44706;SDS011;30433;45.596;8.408;2022-07-22T22:46:24;6.68;;;5.65;;
44706;SDS011;30433;45.596;8.408;2022-07-22T22:52:28;19.52;;;6.57;;
44706;SDS011;30433;45.596;8.408;2022-07-22T22:58:30;6.13;;;5.60;;
44706;SDS011;30433;45.596;8.408;2022-07-22T23:04:32;9.63;;;6.65;;
44706;SDS011;30433;45.596;8.408;2022-07-22T23:10:36;5.88;;;5.30;;
44706;SDS011;30433;45.596;8.408;2022-07-22T23:16:38;7.32;;;5.60;;
44706;SDS011;30433;45.596;8.408;2022-07-22T23:22:40;8.68;;;5.57;;
44706;SDS011;30433;45.596;8.408;2022-07-22T23:28:43;9.15;;;6.13;;
44706;SDS011;30433;45.596;8.408;2022-07-22T23:34:45;6.20;;;5.60;;
44706;SDS011;30433;45.596;8.408;2022-07-22T23:40:47;7.55;;;5.88;;
44706;SDS011;30433;45.596;8.408;2022-07-22T23:46:51;5.95;;;5.40;;
44706;SDS011;30433;45.596;8.408;2022-07-22T23:52:54;7.43;;;5.63;;
44706;SDS011;30433;45.596;8.408;2022-07-22T23:58:57;7.00;;;5.72;;
